M I D A S
Marine Information and Data Acquisition System
Tripno 1810 of the Zeeleeuw from 2009-11-19 08:28:57 to 2009-11-19 13:29:36
Back to CruiseResearch ActivitiesStationsMapUnderway DataData graphs

EquipmentUnitsComment
TimeDGPSUTC
LatitudeDGPSDM.mWGS84
LongitudeDGPSDM.mWGS84
HeadingGyrodeg 
SOGDGPSknotsSpeed over ground
COGDGPSdegCourse over ground
DepthEcho soundermeters200 kHz
Missing or incorrect values are displayed as -999
Navigation data collected by the RV Zeeleeuw from 2009-11-19 08:31:40 to 2009-11-19 13:47:33
                                                                                    Next 1000 lines
Time Latitude Longitude Heading SOG COG Depth
2009-11-19 08:31:50 51°13.662 2°55.955 109.9 1 287 6.2
2009-11-19 08:31:55 51°13.663 2°55.952 110.3 1.5 292 6.2
2009-11-19 08:32:00 51°13.664 2°55.948 110.4 2 292 6.3
2009-11-19 08:32:05 51°13.666 2°55.943 110.8 2.4 294 -999
2009-11-19 08:32:11 51°13.668 2°55.937 111 2.8 294 -999
2009-11-19 08:32:17 51°13.67 2°55.929 110.9 3 295 -999
2009-11-19 08:32:23 51°13.672 2°55.921 110.4 3.3 292 -999
2009-11-19 08:32:28 51°13.674 2°55.914 109.5 3.5 293 -999
2009-11-19 08:32:33 51°13.676 2°55.907 108.8 3.6 291 -999
2009-11-19 08:32:39 51°13.678 2°55.897 108.4 3.7 290 -999
2009-11-19 08:32:44 51°13.679 2°55.889 107.9 3.7 289 -999
2009-11-19 08:32:49 51°13.681 2°55.881 107.3 3.8 288 -999
2009-11-19 08:32:53 51°13.682 2°55.875 106.8 3.8 288 -999
2009-11-19 08:32:58 51°13.684 2°55.867 106.5 3.7 287 -999
2009-11-19 08:33:04 51°13.685 2°55.857 105.9 3.6 287 -999
2009-11-19 08:33:09 51°13.686 2°55.85 104.9 3.5 287 -999
2009-11-19 08:33:14 51°13.687 2°55.842 104 3.5 286 -999
2009-11-19 08:33:18 51°13.688 2°55.836 102.7 3.5 286 -999
2009-11-19 08:33:24 51°13.689 2°55.827 101.4 3.5 284 -999
2009-11-19 08:33:29 51°13.69 2°55.82 100 3.4 284 -999
2009-11-19 08:33:34 51°13.691 2°55.812 98.8 3.3 283 -999
2009-11-19 08:33:39 51°13.692 2°55.806 97.3 3.2 282 -999
2009-11-19 08:33:44 51°13.693 2°55.799 95.9 3.1 281 -999
2009-11-19 08:33:49 51°13.694 2°55.792 93.9 3 280 -999
2009-11-19 08:33:54 51°13.694 2°55.786 92.6 2.9 278 -999
2009-11-19 08:33:59 51°13.695 2°55.78 90.9 2.8 278 -999
2009-11-19 08:34:04 51°13.695 2°55.774 89 2.7 277 -999
2009-11-19 08:34:08 51°13.696 2°55.77 87.4 2.5 277 -999
2009-11-19 08:34:14 51°13.696 2°55.764 86 2 277 -999
2009-11-19 08:34:19 51°13.696 2°55.762 83.3 1.2 286 -999
2009-11-19 08:34:24 51°13.697 2°55.761 79.4 0.7 302 -999
2009-11-19 08:34:28 51°13.697 2°55.76 75.3 0.6 316 12.2
2009-11-19 08:34:33 51°13.698 2°55.759 70.5 0.5 323 12.3
2009-11-19 08:34:38 51°13.698 2°55.759 66.1 0.4 334 12.3
2009-11-19 08:34:43 51°13.699 2°55.759 61.3 0.5 346 12.4
2009-11-19 08:34:48 51°13.7 2°55.758 57.1 0.5 353 12.6
2009-11-19 08:34:53 51°13.7 2°55.758 53.3 0.5 357 12.7
2009-11-19 08:34:57 51°13.701 2°55.758 49.5 0.4 350 12.7
2009-11-19 08:35:02 51°13.701 2°55.758 46.5 0.4 297 12.6
2009-11-19 08:35:07 51°13.701 2°55.756 44 0.6 253 12.6
2009-11-19 08:35:12 51°13.7 2°55.754 40.8 1 238 12.5
2009-11-19 08:35:17 51°13.699 2°55.752 37.6 1.3 231 12.4
2009-11-19 08:35:22 51°13.697 2°55.75 34.4 1.5 226 12.1
2009-11-19 08:35:26 51°13.696 2°55.748 31.3 1.5 223 11.9
2009-11-19 08:35:31 51°13.695 2°55.746 28.3 1.3 221 4.7
2009-11-19 08:35:36 51°13.693 2°55.744 25.6 1.2 220 -999
2009-11-19 08:35:42 51°13.693 2°55.743 23 0.8 226 -999
2009-11-19 08:35:48 51°13.693 2°55.742 19.7 0.3 305 -999
2009-11-19 08:35:53 51°13.694 2°55.742 14.7 0.7 348 -999
2009-11-19 08:35:59 51°13.696 2°55.742 8.8 1.1 350 -999
2009-11-19 08:36:04 51°13.698 2°55.741 2.1 1.5 348 -999
2009-11-19 08:36:09 51°13.7 2°55.74 355.1 1.7 346 4.7
2009-11-19 08:36:13 51°13.702 2°55.738 348.1 2.1 340 4.8
2009-11-19 08:36:18 51°13.706 2°55.736 343 2.5 337 4.8
2009-11-19 08:36:23 51°13.71 2°55.733 339 3.1 334 11.5
2009-11-19 08:36:28 51°13.714 2°55.729 335.2 3.5 333 11.2
2009-11-19 08:36:33 51°13.719 2°55.725 332.7 3.8 332 10.8
2009-11-19 08:36:38 51°13.724 2°55.72 331.4 4.2 331 10.6
2009-11-19 08:36:43 51°13.73 2°55.715 331.1 4.6 331 10.3
2009-11-19 08:36:47 51°13.735 2°55.711 331.1 5 330 10.5
2009-11-19 08:36:52 51°13.742 2°55.705 331.2 5.4 331 10.6
2009-11-19 08:36:57 51°13.749 2°55.699 331.7 5.6 331 10.7
2009-11-19 08:37:02 51°13.756 2°55.692 332.3 6 332 10.3
2009-11-19 08:37:07 51°13.763 2°55.686 332.5 6.2 331 10.2
2009-11-19 08:37:12 51°13.772 2°55.679 332.7 6.4 333 10.3
2009-11-19 08:37:16 51°13.778 2°55.674 333.3 6.6 332 10.4
2009-11-19 08:37:21 51°13.786 2°55.667 333.7 6.8 334 10.3
2009-11-19 08:37:26 51°13.795 2°55.66 334.2 6.9 333 10.2
2009-11-19 08:37:31 51°13.804 2°55.653 334.3 7.1 333 10.2
2009-11-19 08:37:36 51°13.812 2°55.646 334.5 7.2 334 10
2009-11-19 08:37:41 51°13.822 2°55.638 334.7 7.4 334 9.8
2009-11-19 08:37:45 51°13.829 2°55.633 335 7.5 335 9.9
2009-11-19 08:37:50 51°13.838 2°55.626 335.1 7.6 334 9.6
2009-11-19 08:37:55 51°13.848 2°55.618 334.7 7.7 334 9.5
2009-11-19 08:38:00 51°13.858 2°55.611 334.7 7.8 334 9.7
2009-11-19 08:38:05 51°13.868 2°55.604 334.8 7.9 334 9.6
2009-11-19 08:38:10 51°13.878 2°55.596 335.4 7.9 335 9.7
2009-11-19 08:38:15 51°13.888 2°55.588 335.5 8 334 9.7
2009-11-19 08:38:20 51°13.898 2°55.581 335.7 8.1 336 9.9
2009-11-19 08:38:25 51°13.908 2°55.573 336.1 8.2 335 9.6
2009-11-19 08:38:30 51°13.918 2°55.565 336 8.2 335 9.6
2009-11-19 08:38:35 51°13.929 2°55.558 336.1 8.2 336 9.8
2009-11-19 08:38:40 51°13.939 2°55.549 336.1 8.3 335 9.6
2009-11-19 08:38:45 51°13.95 2°55.542 336.3 8.3 336 9.6
2009-11-19 08:38:50 51°13.96 2°55.534 336.5 8.4 336 9.5
2009-11-19 08:38:55 51°13.971 2°55.526 336.1 8.4 335 9.5
2009-11-19 08:39:00 51°13.981 2°55.519 336.1 8.4 336 9.5
2009-11-19 08:39:05 51°13.992 2°55.512 336.6 8.4 336 9.4
2009-11-19 08:39:10 51°14.003 2°55.504 336.2 8.5 335 9.2
2009-11-19 08:39:15 51°14.014 2°55.496 336.1 8.5 335 9.3
2009-11-19 08:39:20 51°14.024 2°55.488 335.6 8.5 334 9.3
2009-11-19 08:39:25 51°14.035 2°55.48 335.7 8.5 335 9
2009-11-19 08:39:30 51°14.046 2°55.472 336.1 8.5 335 9
2009-11-19 08:39:35 51°14.056 2°55.464 336.2 8.5 335 9
2009-11-19 08:39:40 51°14.067 2°55.457 336.2 8.5 335 9
2009-11-19 08:39:45 51°14.078 2°55.448 336 8.5 334 9.4
2009-11-19 08:39:50 51°14.088 2°55.44 335.4 8.5 334 9.2
2009-11-19 08:39:55 51°14.098 2°55.432 334.9 8.4 334 9.3
2009-11-19 08:40:00 51°14.109 2°55.424 334.5 8.4 333 9.1
2009-11-19 08:40:05 51°14.119 2°55.416 334.9 8.4 334 9.4
2009-11-19 08:40:10 51°14.13 2°55.407 335.3 8.4 333 9.1
2009-11-19 08:40:15 51°14.14 2°55.398 334.7 8.3 332 9.1
2009-11-19 08:40:20 51°14.15 2°55.389 333 8.4 330 9.3
2009-11-19 08:40:25 51°14.16 2°55.38 331.8 8.4 330 9.3
2009-11-19 08:40:30 51°14.17 2°55.37 330.2 8.4 327 9.4
2009-11-19 08:40:35 51°14.18 2°55.36 328.3 8.5 326 9.3
2009-11-19 08:40:40 51°14.189 2°55.349 326 8.5 324 9.4
2009-11-19 08:40:45 51°14.199 2°55.338 325.2 8.5 323 9.3
2009-11-19 08:40:50 51°14.208 2°55.326 324.1 8.4 322 9.4
2009-11-19 08:40:55 51°14.217 2°55.314 322.8 8.4 320 9.4
2009-11-19 08:41:00 51°14.225 2°55.302 320.9 8.4 318 9.4
2009-11-19 08:41:05 51°14.234 2°55.289 319.7 8.4 318 9.4
2009-11-19 08:41:10 51°14.242 2°55.276 318.8 8.5 316 9.4
2009-11-19 08:41:15 51°14.25 2°55.263 316.6 8.5 315 9.3
2009-11-19 08:41:20 51°14.258 2°55.249 314.5 8.6 313 9.3
2009-11-19 08:41:25 51°14.267 2°55.235 313.7 8.6 313 9.4
2009-11-19 08:41:30 51°14.275 2°55.221 313.6 8.7 312 9.5
2009-11-19 08:41:35 51°14.283 2°55.206 312.7 8.8 311 9.3
2009-11-19 08:41:40 51°14.291 2°55.191 311.1 9 310 9.2
2009-11-19 08:41:45 51°14.299 2°55.176 310.7 9.1 311 9.2
2009-11-19 08:41:50 51°14.308 2°55.161 311.8 9.1 313 9.4
2009-11-19 08:41:54 51°14.315 2°55.149 313.7 9.2 314 9.4
2009-11-19 08:42:00 51°14.325 2°55.131 314 9.3 312 9.6
2009-11-19 08:42:05 51°14.334 2°55.116 313.3 9.4 312 9.6
2009-11-19 08:42:10 51°14.343 2°55.1 312.4 9.6 311 9.4
2009-11-19 08:42:14 51°14.35 2°55.087 311.8 9.7 310 9.5
2009-11-19 08:42:20 51°14.36 2°55.067 311 9.8 311 9.5
2009-11-19 08:42:25 51°14.369 2°55.051 311.3 9.9 312 9.3
2009-11-19 08:42:31 51°14.38 2°55.031 312.4 10.1 311 9
2009-11-19 08:42:34 51°14.386 2°55.021 312.7 10.2 312 8.7
2009-11-19 08:42:39 51°14.396 2°55.004 312.5 10.3 311 8.7
2009-11-19 08:42:45 51°14.407 2°54.983 311.6 10.4 312 8.9
2009-11-19 08:42:49 51°14.415 2°54.97 313.4 10.5 315 8.8
2009-11-19 08:42:54 51°14.426 2°54.954 315.6 10.6 318 9
2009-11-19 08:42:59 51°14.438 2°54.939 318.2 10.7 321 9
2009-11-19 08:43:04 51°14.45 2°54.924 321.3 10.7 323 9
2009-11-19 08:43:09 51°14.462 2°54.911 325 10.7 325 9.2
2009-11-19 08:43:14 51°14.474 2°54.897 326.4 10.8 325 9
2009-11-19 08:43:20 51°14.489 2°54.881 328.1 10.8 327 8.8
2009-11-19 08:43:25 51°14.501 2°54.868 330.4 10.9 327 9
2009-11-19 08:43:30 51°14.514 2°54.855 331.3 10.8 327 8.9
2009-11-19 08:43:35 51°14.527 2°54.844 332.4 10.8 330 8.8
2009-11-19 08:43:40 51°14.54 2°54.833 336.4 10.7 333 8.8
2009-11-19 08:43:45 51°14.554 2°54.823 338.9 10.7 334 8.9
2009-11-19 08:43:50 51°14.567 2°54.812 337.9 10.8 331 8.8
2009-11-19 08:43:55 51°14.58 2°54.801 337.5 10.8 333 8.6
2009-11-19 08:44:00 51°14.593 2°54.79 337.6 10.8 332 8.7
2009-11-19 08:44:05 51°14.607 2°54.78 338.3 10.8 335 8.7
2009-11-19 08:44:10 51°14.62 2°54.769 338.8 10.7 334 8.4
2009-11-19 08:44:15 51°14.633 2°54.759 338.8 10.8 334 8.5
2009-11-19 08:44:21 51°14.65 2°54.745 338.3 10.9 332 8.6
2009-11-19 08:44:25 51°14.661 2°54.737 338.3 10.9 334 8.6
2009-11-19 08:44:30 51°14.674 2°54.727 338.7 10.8 334 8.5
2009-11-19 08:44:35 51°14.688 2°54.716 339.3 10.9 334 8.5
2009-11-19 08:44:40 51°14.701 2°54.706 339.3 10.9 335 8.4
2009-11-19 08:44:45 51°14.715 2°54.696 339.4 10.9 334 8.3
2009-11-19 08:44:50 51°14.729 2°54.685 339.2 10.9 335 9
2009-11-19 08:44:55 51°14.742 2°54.675 339 10.8 335 9
2009-11-19 08:45:00 51°14.756 2°54.665 339.3 10.8 335 8.4
2009-11-19 08:45:05 51°14.77 2°54.655 339.2 10.8 335 8.5
2009-11-19 08:45:10 51°14.783 2°54.645 339.8 10.8 335 8.6
2009-11-19 08:45:15 51°14.797 2°54.634 339.6 10.9 335 8.5
2009-11-19 08:45:20 51°14.811 2°54.624 339 10.9 334 8.1
2009-11-19 08:45:25 51°14.824 2°54.614 338.9 10.8 335 8.2
2009-11-19 08:45:30 51°14.838 2°54.604 339.3 10.9 335 8.6
2009-11-19 08:45:35 51°14.851 2°54.594 339.2 10.9 335 8.4
2009-11-19 08:45:40 51°14.865 2°54.584 339 10.8 335 8.6
2009-11-19 08:45:45 51°14.879 2°54.574 339.1 10.9 336 8.7
2009-11-19 08:45:50 51°14.892 2°54.564 339.6 10.9 336 8.6
2009-11-19 08:45:55 51°14.906 2°54.553 339.3 10.9 335 8.8
2009-11-19 08:45:58 51°14.914 2°54.547 338.8 10.9 335 8.7
2009-11-19 08:46:05 51°14.933 2°54.533 338.9 10.8 335 8.5
2009-11-19 08:46:10 51°14.947 2°54.523 339.2 10.8 335 8.9
2009-11-19 08:46:15 51°14.961 2°54.513 339 10.8 335 8.7
2009-11-19 08:46:20 51°14.974 2°54.503 338.6 10.8 335 8.8
2009-11-19 08:46:25 51°14.988 2°54.493 338.6 10.8 335 9.2
2009-11-19 08:46:30 51°15.001 2°54.483 338.8 10.8 334 9.1
2009-11-19 08:46:34 51°15.012 2°54.475 338.4 10.9 335 9.2
2009-11-19 08:46:40 51°15.029 2°54.462 338.1 10.9 335 9
2009-11-19 08:46:45 51°15.042 2°54.452 338.2 10.9 335 9.2
2009-11-19 08:46:50 51°15.056 2°54.442 338.7 10.8 335 9
2009-11-19 08:46:55 51°15.069 2°54.432 338.3 10.8 334 9.3
2009-11-19 08:47:00 51°15.083 2°54.422 338.3 10.8 335 9.1
2009-11-19 08:47:05 51°15.098 2°54.411 338.4 10.8 334 9.1
2009-11-19 08:47:10 51°15.111 2°54.401 338.3 10.8 335 9
2009-11-19 08:47:15 51°15.125 2°54.391 338.4 10.8 334 8.7
2009-11-19 08:47:20 51°15.138 2°54.381 338.3 10.7 335 8.2
2009-11-19 08:47:25 51°15.151 2°54.37 338.1 10.7 334 8.3
2009-11-19 08:47:30 51°15.165 2°54.36 338.1 10.7 334 8.1
2009-11-19 08:47:35 51°15.177 2°54.35 338.2 10.6 334 8
2009-11-19 08:47:40 51°15.19 2°54.339 337.9 10.7 333 7.7
2009-11-19 08:47:45 51°15.204 2°54.329 337.8 10.7 333 8.1
2009-11-19 08:47:50 51°15.217 2°54.318 337.5 10.6 332 8
2009-11-19 08:47:55 51°15.23 2°54.307 337.6 10.6 334 7.8
2009-11-19 08:48:00 51°15.243 2°54.297 338.3 10.6 333 7.8
2009-11-19 08:48:05 51°15.256 2°54.286 338 10.6 333 8
2009-11-19 08:48:10 51°15.269 2°54.276 337.8 10.6 333 8
2009-11-19 08:48:15 51°15.282 2°54.265 337.9 10.7 333 7.9
2009-11-19 08:48:20 51°15.296 2°54.255 338 10.6 333 7.9
2009-11-19 08:48:25 51°15.309 2°54.244 338.4 10.6 334 8.2
2009-11-19 08:48:30 51°15.322 2°54.234 338.5 10.6 334 8
2009-11-19 08:48:35 51°15.335 2°54.223 338.9 10.5 334 8.1
2009-11-19 08:48:40 51°15.348 2°54.213 339 10.6 334 8.3
2009-11-19 08:48:45 51°15.362 2°54.203 339 10.7 334 8.4
2009-11-19 08:48:50 51°15.375 2°54.192 338.4 10.7 333 8.4
2009-11-19 08:48:55 51°15.388 2°54.182 338.3 10.6 334 8.2
2009-11-19 08:49:00 51°15.401 2°54.171 338.3 10.6 333 8.3
2009-11-19 08:49:05 51°15.414 2°54.161 338.5 10.6 334 8.6
2009-11-19 08:49:10 51°15.427 2°54.15 338.5 10.7 333 8.4
2009-11-19 08:49:15 51°15.44 2°54.14 338.5 10.7 334 8.6
2009-11-19 08:49:20 51°15.454 2°54.129 338 10.7 332 8.6
2009-11-19 08:49:25 51°15.467 2°54.119 338.1 10.6 333 8.6
2009-11-19 08:49:30 51°15.48 2°54.107 337.9 10.7 332 8.7
2009-11-19 08:49:35 51°15.493 2°54.097 338 10.7 333 8.7
2009-11-19 08:49:40 51°15.506 2°54.086 338.2 10.6 333 8.6
2009-11-19 08:49:45 51°15.519 2°54.076 339 10.6 334 9
2009-11-19 08:49:50 51°15.533 2°54.065 337.9 10.7 332 9
2009-11-19 08:49:55 51°15.546 2°54.055 338.1 10.6 335 9.3
2009-11-19 08:50:00 51°15.558 2°54.043 338.3 10.6 333 9.4
2009-11-19 08:50:05 51°15.572 2°54.033 338.9 10.6 333 9
2009-11-19 08:50:10 51°15.585 2°54.022 337.9 10.6 331 9
2009-11-19 08:50:15 51°15.598 2°54.012 338.5 10.5 334 9.3
2009-11-19 08:50:20 51°15.611 2°54 338.3 10.7 333 9.3
2009-11-19 08:50:25 51°15.624 2°53.989 338.3 10.7 332 9.4
2009-11-19 08:50:30 51°15.638 2°53.978 337.6 10.8 332 9.6
2009-11-19 08:50:35 51°15.65 2°53.967 337.4 10.8 332 9.4
2009-11-19 08:50:40 51°15.663 2°53.956 337.1 10.6 332 9.4
2009-11-19 08:50:45 51°15.676 2°53.944 337.6 10.7 332 9.2
2009-11-19 08:50:50 51°15.689 2°53.934 337.9 10.8 333 9.7
2009-11-19 08:50:54 51°15.7 2°53.925 337.6 10.8 331 9.9
2009-11-19 08:51:00 51°15.715 2°53.911 337.3 10.5 333 9.8
2009-11-19 08:51:05 51°15.728 2°53.9 338.4 10.6 331 9.6
2009-11-19 08:51:10 51°15.74 2°53.889 338.3 10.6 333 9.6
2009-11-19 08:51:14 51°15.75 2°53.881 338.5 10.6 333 9.8
2009-11-19 08:51:20 51°15.766 2°53.868 338.7 10.8 333 9.9
2009-11-19 08:51:25 51°15.78 2°53.857 338.7 10.8 333 9.9
2009-11-19 08:51:30 51°15.793 2°53.846 338.6 10.9 333 10
2009-11-19 08:51:34 51°15.804 2°53.837 338.3 10.9 333 10.1
2009-11-19 08:51:40 51°15.82 2°53.824 338.3 10.8 332 10.3
2009-11-19 08:51:45 51°15.834 2°53.813 338.2 10.8 333 9.9
2009-11-19 08:51:50 51°15.847 2°53.802 338.2 10.9 332 10
2009-11-19 08:51:54 51°15.858 2°53.793 337.9 10.8 333 10.1
2009-11-19 08:52:00 51°15.874 2°53.78 338.7 10.9 334 10.5
2009-11-19 08:52:05 51°15.887 2°53.77 338.7 10.8 334 10.3
2009-11-19 08:52:10 51°15.901 2°53.759 338.7 10.9 334 10.4
2009-11-19 08:52:14 51°15.912 2°53.75 338.9 10.9 334 10.3
2009-11-19 08:52:20 51°15.928 2°53.738 338.4 10.7 334 10.3
2009-11-19 08:52:25 51°15.942 2°53.727 338.3 10.7 334 10.4
2009-11-19 08:52:30 51°15.955 2°53.717 338.3 10.7 333 10.3
2009-11-19 08:52:35 51°15.969 2°53.706 338.8 10.9 334 10.5
2009-11-19 08:52:40 51°15.983 2°53.696 338.4 10.9 334 10.4
2009-11-19 08:52:45 51°15.997 2°53.685 338.3 10.9 333 10.6
2009-11-19 08:52:50 51°16.01 2°53.674 338.4 10.9 334 10.5
2009-11-19 08:52:55 51°16.023 2°53.663 338.8 10.9 334 10.4
2009-11-19 08:53:00 51°16.036 2°53.652 338.7 10.9 333 10.3
2009-11-19 08:53:05 51°16.05 2°53.642 338.5 10.9 334 10.5
2009-11-19 08:53:10 51°16.063 2°53.631 338.7 10.9 334 10.5
2009-11-19 08:53:15 51°16.077 2°53.62 338.4 10.8 333 10.4
2009-11-19 08:53:20 51°16.09 2°53.61 338.2 10.8 334 10.4
2009-11-19 08:53:25 51°16.103 2°53.598 338.2 10.8 333 10.3
2009-11-19 08:53:30 51°16.116 2°53.588 338 10.8 333 10.3
2009-11-19 08:53:35 51°16.129 2°53.577 338.3 10.8 333 10.4
2009-11-19 08:53:40 51°16.142 2°53.566 338.3 10.9 334 10.6
2009-11-19 08:53:45 51°16.155 2°53.555 338.3 10.8 334 10.3
2009-11-19 08:53:50 51°16.169 2°53.545 338.2 10.7 334 10.9
2009-11-19 08:53:55 51°16.182 2°53.535 338.8 10.8 335 10.8
2009-11-19 08:54:00 51°16.195 2°53.524 338 10.8 333 10.9
2009-11-19 08:54:05 51°16.208 2°53.513 337.6 10.5 334 10.5
2009-11-19 08:54:10 51°16.221 2°53.503 338.6 10.6 333 10.1
2009-11-19 08:54:15 51°16.234 2°53.492 338.4 10.2 332 10.5
2009-11-19 08:54:20 51°16.248 2°53.482 338.8 10.5 332 10.9
2009-11-19 08:54:25 51°16.261 2°53.471 337.8 10.5 332 10.9
2009-11-19 08:54:30 51°16.274 2°53.459 336.9 10.5 331 10.8
2009-11-19 08:54:35 51°16.287 2°53.448 336.7 10.6 331 10.6
2009-11-19 08:54:40 51°16.3 2°53.436 336 10.7 330 10.8
2009-11-19 08:54:45 51°16.314 2°53.426 335.8 10.6 332 10.5
2009-11-19 08:54:50 51°16.326 2°53.414 335.9 10.6 330 10.7
2009-11-19 08:54:55 51°16.339 2°53.402 335.5 10.6 331 11.1
2009-11-19 08:55:00 51°16.352 2°53.391 335.4 10.7 330 11.2
2009-11-19 08:55:05 51°16.364 2°53.379 335.4 10.6 330 11.1
2009-11-19 08:55:10 51°16.377 2°53.367 334.7 10.5 329 10.7
2009-11-19 08:55:15 51°16.389 2°53.355 334.8 10.7 330 10.9
2009-11-19 08:55:20 51°16.403 2°53.343 335.4 10.7 330 10.6
2009-11-19 08:55:25 51°16.415 2°53.331 335.4 10.8 330 10.8
2009-11-19 08:55:30 51°16.428 2°53.319 335.3 10.8 330 10.8
2009-11-19 08:55:35 51°16.442 2°53.307 335 10.9 330 10.8
2009-11-19 08:55:40 51°16.454 2°53.295 335 10.7 330 10.3
2009-11-19 08:55:45 51°16.467 2°53.284 335.4 10.7 331 10.6
2009-11-19 08:55:50 51°16.48 2°53.272 335.4 10.8 330 10.8
2009-11-19 08:55:55 51°16.493 2°53.26 334.7 10.8 330 10.7
2009-11-19 08:56:00 51°16.506 2°53.248 334.7 10.9 331 10.6
2009-11-19 08:56:05 51°16.519 2°53.237 335.5 10.9 331 10.9
2009-11-19 08:56:10 51°16.532 2°53.225 334.9 10.8 331 10.6
2009-11-19 08:56:15 51°16.545 2°53.213 334.5 10.9 331 10.8
2009-11-19 08:56:20 51°16.559 2°53.202 334.7 10.8 331 10.6
2009-11-19 08:56:25 51°16.572 2°53.19 335 10.7 331 10.4
2009-11-19 08:56:30 51°16.585 2°53.179 335.5 10.7 332 10.6
2009-11-19 08:56:35 51°16.598 2°53.168 335.3 10.9 331 10.7
2009-11-19 08:56:40 51°16.611 2°53.156 334.7 10.8 332 10.6
2009-11-19 08:56:45 51°16.625 2°53.145 335.1 10.8 333 10.3
2009-11-19 08:56:50 51°16.638 2°53.134 335.1 10.8 331 10.6
2009-11-19 08:56:55 51°16.651 2°53.123 334.9 10.7 332 10.5
2009-11-19 08:57:00 51°16.664 2°53.111 335.3 10.7 331 10.3
2009-11-19 08:57:05 51°16.677 2°53.1 335.2 10.7 332 10.1
2009-11-19 08:57:10 51°16.69 2°53.088 334.9 10.7 331 10.4
2009-11-19 08:57:15 51°16.703 2°53.076 333.9 10.7 330 10.4
2009-11-19 08:57:20 51°16.715 2°53.064 333.2 10.6 330 10
2009-11-19 08:57:25 51°16.728 2°53.052 333.1 10.6 330 9.8
2009-11-19 08:57:30 51°16.74 2°53.04 333.2 10.5 329 10.2
2009-11-19 08:57:35 51°16.753 2°53.029 333.1 10.6 330 9.9
2009-11-19 08:57:40 51°16.765 2°53.017 332.5 10.5 329 9.8
2009-11-19 08:57:45 51°16.778 2°53.005 332.3 10.4 329 9.4
2009-11-19 08:57:50 51°16.79 2°52.993 332.6 10.4 329 9.1
2009-11-19 08:57:55 51°16.803 2°52.981 332.5 10.6 329 8.8
2009-11-19 08:58:00 51°16.816 2°52.969 332.4 10.5 329 8.6
2009-11-19 08:58:05 51°16.827 2°52.956 332.3 10.3 328 8.3
2009-11-19 08:58:10 51°16.839 2°52.945 332 10.2 329 8.2
2009-11-19 08:58:15 51°16.852 2°52.932 332.2 10.4 328 7.9
2009-11-19 08:58:20 51°16.863 2°52.921 332.1 10.2 328 7.9
2009-11-19 08:58:25 51°16.875 2°52.908 332 10.2 328 7.8
2009-11-19 08:58:30 51°16.887 2°52.897 332.1 10.2 329 7.6
2009-11-19 08:58:35 51°16.899 2°52.885 332.4 10.1 328 7.7
2009-11-19 08:58:40 51°16.911 2°52.873 332.6 10.2 328 7.8
2009-11-19 08:58:45 51°16.924 2°52.862 332.2 10.3 328 8.4
2009-11-19 08:58:50 51°16.936 2°52.85 331.9 9.9 328 7.8
2009-11-19 08:58:55 51°16.947 2°52.838 332.5 9.9 327 8
2009-11-19 08:59:00 51°16.959 2°52.826 332.1 10.3 327 8.4
2009-11-19 08:59:05 51°16.972 2°52.814 331.6 10.4 328 8.6
2009-11-19 08:59:10 51°16.984 2°52.801 331.6 10.4 327 8.5
2009-11-19 08:59:15 51°16.997 2°52.789 331.8 10.3 328 8.4
2009-11-19 08:59:20 51°17.009 2°52.777 332.1 10.4 327 8.8
2009-11-19 08:59:25 51°17.021 2°52.765 332.1 10.2 328 8.4
2009-11-19 08:59:30 51°17.033 2°52.753 332.6 10.2 328 8.3
2009-11-19 08:59:35 51°17.045 2°52.74 332.4 10.4 327 9
2009-11-19 08:59:40 51°17.057 2°52.728 331.7 10.5 329 8.5
2009-11-19 08:59:45 51°17.069 2°52.715 330.8 10.2 327 8.8
2009-11-19 08:59:50 51°17.08 2°52.703 331.8 10.4 327 9.1
2009-11-19 08:59:55 51°17.091 2°52.69 331.1 10.4 326 8.7
2009-11-19 09:00:00 51°17.104 2°52.678 331.3 10.4 327 8.3
2009-11-19 09:00:05 51°17.116 2°52.665 331.9 10.4 328 8.5
2009-11-19 09:00:10 51°17.129 2°52.654 332.4 10.6 330 8.3
2009-11-19 09:00:15 51°17.141 2°52.641 332.2 10.4 328 8.3
2009-11-19 09:00:20 51°17.153 2°52.63 332.7 10.3 328 8.3
2009-11-19 09:00:25 51°17.165 2°52.617 332.2 10.3 328 8.4
2009-11-19 09:00:30 51°17.177 2°52.605 333.1 10.3 329 8.3
2009-11-19 09:00:34 51°17.187 2°52.595 332.5 10.4 328 8.6
2009-11-19 09:00:40 51°17.201 2°52.581 332.5 10.3 329 9
2009-11-19 09:00:45 51°17.214 2°52.569 332.7 10.3 330 9.1
2009-11-19 09:00:50 51°17.226 2°52.558 333.1 10.3 330 8.5
2009-11-19 09:00:55 51°17.238 2°52.546 333.2 10.4 328 8.7
2009-11-19 09:01:00 51°17.25 2°52.534 331.8 10.3 329 8.7
2009-11-19 09:01:05 51°17.262 2°52.522 332.9 10.2 328 9
2009-11-19 09:01:10 51°17.274 2°52.51 332.5 10.3 328 8.6
2009-11-19 09:01:15 51°17.286 2°52.498 333.1 10.2 329 8.8
2009-11-19 09:01:20 51°17.297 2°52.485 332.5 10.2 326 8.9
2009-11-19 09:01:25 51°17.309 2°52.473 332.3 10.3 328 9.2
2009-11-19 09:01:30 51°17.32 2°52.46 332.5 10.2 327 8.7
2009-11-19 09:01:35 51°17.332 2°52.449 332.5 10.1 327 9.2
2009-11-19 09:01:40 51°17.345 2°52.436 332.2 10.3 327 9.5
2009-11-19 09:01:45 51°17.357 2°52.424 332 10.2 327 9
2009-11-19 09:01:50 51°17.369 2°52.412 332.4 10.2 327 9.2
2009-11-19 09:01:55 51°17.381 2°52.4 332.4 10.3 328 9.7
2009-11-19 09:02:00 51°17.393 2°52.387 331.8 10.2 327 9.3
2009-11-19 09:02:05 51°17.404 2°52.375 331.8 10.2 329 9.7
2009-11-19 09:02:10 51°17.416 2°52.363 331.8 10.2 328 8.9
2009-11-19 09:02:15 51°17.428 2°52.352 331.8 10.2 328 9.3
2009-11-19 09:02:20 51°17.44 2°52.339 331.8 10.1 327 9.3
2009-11-19 09:02:25 51°17.452 2°52.327 331.5 10.1 328 9.1
2009-11-19 09:02:30 51°17.464 2°52.315 332.1 10.3 327 9.7
2009-11-19 09:02:35 51°17.476 2°52.303 332.1 10.2 329 9.6
2009-11-19 09:02:40 51°17.488 2°52.29 332.5 10.3 326 9.4
2009-11-19 09:02:45 51°17.499 2°52.278 332.1 10.3 327 9.5
2009-11-19 09:02:50 51°17.511 2°52.266 332 10.2 327 9.8
2009-11-19 09:02:55 51°17.523 2°52.254 331.8 10.2 327 9.5
2009-11-19 09:03:00 51°17.535 2°52.242 331.8 10.2 328 10.6
2009-11-19 09:03:05 51°17.548 2°52.23 332.4 10.3 327 10.1
2009-11-19 09:03:10 51°17.56 2°52.218 332.1 10.5 328 10.3
2009-11-19 09:03:15 51°17.572 2°52.206 331.9 10.3 328 9.8
2009-11-19 09:03:20 51°17.584 2°52.193 331.8 10.1 327 10.3
2009-11-19 09:03:25 51°17.596 2°52.18 332.2 10.3 326 10.4
2009-11-19 09:03:30 51°17.607 2°52.167 330.6 10.2 326 9.7
2009-11-19 09:03:35 51°17.619 2°52.155 331.1 10.3 327 9.7
2009-11-19 09:03:40 51°17.63 2°52.143 332.4 10.3 327 10.1
2009-11-19 09:03:45 51°17.642 2°52.13 331.8 10.3 326 10.4
2009-11-19 09:03:50 51°17.654 2°52.118 331.2 10.4 327 10.3
2009-11-19 09:03:54 51°17.664 2°52.108 331.8 10.4 327 10.6
2009-11-19 09:04:00 51°17.678 2°52.093 331.9 10.2 328 10.4
2009-11-19 09:04:05 51°17.691 2°52.081 332.3 10.3 327 10.2
2009-11-19 09:04:10 51°17.703 2°52.069 332.2 10.4 328 10.2
2009-11-19 09:04:14 51°17.713 2°52.059 332.5 10.4 327 10.1
2009-11-19 09:04:20 51°17.728 2°52.044 332 10.2 328 9.9
2009-11-19 09:04:25 51°17.74 2°52.032 331.9 10.3 328 9.8
2009-11-19 09:04:30 51°17.752 2°52.02 332 10.3 328 10.3
2009-11-19 09:04:34 51°17.761 2°52.01 332 10.4 327 10
2009-11-19 09:04:40 51°17.775 2°51.995 331.6 10.3 327 9.4
2009-11-19 09:04:45 51°17.787 2°51.982 331.8 10.3 327 9
2009-11-19 09:04:50 51°17.799 2°51.97 331.9 10.2 329 9.2
2009-11-19 09:04:54 51°17.808 2°51.96 332.7 10.2 327 9.3
2009-11-19 09:05:00 51°17.822 2°51.946 332.5 10 328 8.5
2009-11-19 09:05:05 51°17.834 2°51.934 332.5 10 327 9
2009-11-19 09:05:10 51°17.846 2°51.923 333.2 10.2 330 8.8
2009-11-19 09:05:14 51°17.856 2°51.913 332.1 10.1 327 9
2009-11-19 09:05:20 51°17.87 2°51.899 331.9 10 328 9.5
2009-11-19 09:05:25 51°17.882 2°51.888 332.7 10 327 9.4
2009-11-19 09:05:30 51°17.893 2°51.875 331.7 10.1 325 9.1
2009-11-19 09:05:34 51°17.902 2°51.865 331.3 10.1 326 9.2
2009-11-19 09:05:40 51°17.916 2°51.85 331.1 10.2 326 9.2
2009-11-19 09:05:45 51°17.928 2°51.838 331.4 10.2 328 9.3
2009-11-19 09:05:50 51°17.94 2°51.825 332.1 10.2 326 9.6
2009-11-19 09:05:55 51°17.952 2°51.814 332.5 10.2 328 9.7
2009-11-19 09:06:00 51°17.964 2°51.802 331.8 10.3 327 9.4
2009-11-19 09:06:05 51°17.976 2°51.79 331.8 10.1 329 9.3
2009-11-19 09:06:10 51°17.988 2°51.778 332.4 10.1 327 9.6
2009-11-19 09:06:15 51°17.999 2°51.765 331.1 10.2 325 9.7
2009-11-19 09:06:20 51°18.011 2°51.753 330.9 10.2 327 9.8
2009-11-19 09:06:25 51°18.023 2°51.74 330.6 10.2 325 9.9
2009-11-19 09:06:30 51°18.035 2°51.728 330.6 10.2 327 9.7
2009-11-19 09:06:35 51°18.047 2°51.715 331.6 10.3 326 9.8
2009-11-19 09:06:40 51°18.059 2°51.702 331.8 10.4 327 9.8
2009-11-19 09:06:45 51°18.07 2°51.689 331.5 10.3 325 9.6
2009-11-19 09:06:50 51°18.083 2°51.677 331.8 10.3 328 9.6
2009-11-19 09:06:55 51°18.095 2°51.664 331.9 10.3 326 10.5
2009-11-19 09:07:00 51°18.107 2°51.652 332.1 10.4 327 10.5
2009-11-19 09:07:05 51°18.119 2°51.639 332.1 10.4 327 9.7
2009-11-19 09:07:10 51°18.131 2°51.627 332.5 10.4 328 10
2009-11-19 09:07:15 51°18.143 2°51.614 332.5 10.5 326 9.8
2009-11-19 09:07:20 51°18.156 2°51.602 331.9 10.5 329 10.3
2009-11-19 09:07:25 51°18.168 2°51.59 333.1 10.4 327 10.2
2009-11-19 09:07:30 51°18.18 2°51.577 332.7 10.2 326 10.6
2009-11-19 09:07:35 51°18.192 2°51.565 333.2 10.2 328 10.9
2009-11-19 09:07:40 51°18.205 2°51.552 332.9 10.4 326 10.9
2009-11-19 09:07:45 51°18.217 2°51.541 332.4 10.3 329 11
2009-11-19 09:07:50 51°18.229 2°51.528 332.8 10.4 327 11
2009-11-19 09:07:55 51°18.241 2°51.516 332.9 10.4 327 11.1
2009-11-19 09:08:00 51°18.254 2°51.504 333 10.3 330 11.6
2009-11-19 09:08:05 51°18.266 2°51.492 333.1 10.3 329 10.5
2009-11-19 09:08:10 51°18.278 2°51.48 332.5 10.2 327 10.8
2009-11-19 09:08:15 51°18.29 2°51.468 331.8 10.1 327 11.7
2009-11-19 09:08:20 51°18.303 2°51.457 332.4 10.1 329 11.5
2009-11-19 09:08:25 51°18.315 2°51.444 333 10.3 326 11.1
2009-11-19 09:08:30 51°18.327 2°51.432 332.9 10.3 327 11.2
2009-11-19 09:08:35 51°18.339 2°51.419 332.3 10.4 326 11.1
2009-11-19 09:08:40 51°18.351 2°51.407 331.5 10.3 327 11.4
2009-11-19 09:08:45 51°18.363 2°51.395 332.7 10.5 328 11.4
2009-11-19 09:08:50 51°18.375 2°51.383 332.8 10.3 328 12.2
2009-11-19 09:08:55 51°18.386 2°51.37 332.7 10.3 327 12.3
2009-11-19 09:09:00 51°18.398 2°51.357 332.7 10.3 327 12.2
2009-11-19 09:09:05 51°18.41 2°51.345 331.8 10.3 326 12
2009-11-19 09:09:10 51°18.422 2°51.331 331.8 10.4 325 11.8
2009-11-19 09:09:15 51°18.434 2°51.319 331.5 10.5 327 11.7
2009-11-19 09:09:20 51°18.446 2°51.306 331.8 10.4 326 12.3
2009-11-19 09:09:25 51°18.457 2°51.293 332 10.5 327 12.8
2009-11-19 09:09:30 51°18.469 2°51.281 331.8 10.5 328 13.1
2009-11-19 09:09:34 51°18.48 2°51.27 331.6 10.8 328 13
2009-11-19 09:09:40 51°18.494 2°51.255 331.7 10.3 326 13
2009-11-19 09:09:45 51°18.506 2°51.243 331.7 10.3 328 13.3
2009-11-19 09:09:50 51°18.518 2°51.23 331.7 10.3 326 12.5
2009-11-19 09:09:55 51°18.529 2°51.217 331.4 10.3 326 12.6
2009-11-19 09:10:00 51°18.542 2°51.205 332.1 10.4 328 12.2
2009-11-19 09:10:05 51°18.554 2°51.192 332.6 10.4 326 12.7
2009-11-19 09:10:10 51°18.566 2°51.18 333.3 10.3 327 12.4
2009-11-19 09:10:15 51°18.577 2°51.168 333.2 10.2 327 12.8
2009-11-19 09:10:20 51°18.59 2°51.155 333.1 10.4 326 13.1
2009-11-19 09:10:25 51°18.602 2°51.143 332.2 10.5 327 12.6
2009-11-19 09:10:30 51°18.613 2°51.13 331.8 10.2 325 12.6
2009-11-19 09:10:35 51°18.625 2°51.117 332.1 10.4 326 13
2009-11-19 09:10:40 51°18.637 2°51.104 331.7 10.4 326 13.1
2009-11-19 09:10:45 51°18.65 2°51.091 331.9 10.5 326 12.7
2009-11-19 09:10:50 51°18.662 2°51.078 331.8 10.6 326 13.3
2009-11-19 09:10:55 51°18.674 2°51.065 332 10.5 327 13.2
2009-11-19 09:11:00 51°18.687 2°51.052 332.5 10.7 327 13.5
2009-11-19 09:11:05 51°18.7 2°51.04 332.4 10.6 327 13.7
2009-11-19 09:11:10 51°18.712 2°51.027 332.3 10.5 328 12.9
2009-11-19 09:11:15 51°18.724 2°51.014 332.2 10.5 325 13.4
2009-11-19 09:11:20 51°18.737 2°51.002 332.4 10.6 327 13.9
2009-11-19 09:11:25 51°18.749 2°50.988 331.5 10.7 325 14
2009-11-19 09:11:30 51°18.762 2°50.976 330.8 10.6 328 13.2
2009-11-19 09:11:35 51°18.774 2°50.964 331.7 10.4 328 13.4
2009-11-19 09:11:40 51°18.786 2°50.95 332.3 10.4 324 13.4
2009-11-19 09:11:45 51°18.798 2°50.938 332.1 10.5 328 14
2009-11-19 09:11:50 51°18.81 2°50.925 332.3 10.6 326 13.9
2009-11-19 09:11:54 51°18.82 2°50.916 332.5 10.5 329 13.8
2009-11-19 09:12:00 51°18.834 2°50.9 332.4 10.3 327 13.1
2009-11-19 09:12:05 51°18.847 2°50.889 333.5 10.4 330 13.6
2009-11-19 09:12:10 51°18.858 2°50.876 332.7 10.3 325 13.7
2009-11-19 09:12:15 51°18.87 2°50.863 332 10.2 328 13.5
2009-11-19 09:12:20 51°18.882 2°50.851 333.2 10.4 325 13.6
2009-11-19 09:12:25 51°18.894 2°50.838 332.3 10.3 328 14.2
2009-11-19 09:12:30 51°18.906 2°50.826 333.3 10.3 328 14.2
2009-11-19 09:12:35 51°18.918 2°50.813 332.5 10.4 325 14.2
2009-11-19 09:12:40 51°18.93 2°50.801 332.2 10.4 327 13.6
2009-11-19 09:12:45 51°18.942 2°50.787 332.4 10.5 325 13.6
2009-11-19 09:12:50 51°18.954 2°50.774 331.7 10.5 326 13.7
2009-11-19 09:12:55 51°18.966 2°50.761 331.1 10.6 326 14.2
2009-11-19 09:13:00 51°18.978 2°50.748 330.5 10.3 326 13.5
2009-11-19 09:13:05 51°18.99 2°50.736 331.7 10.4 327 13.2
2009-11-19 09:13:10 51°19.001 2°50.722 331.3 10.4 324 13.4
2009-11-19 09:13:14 51°19.011 2°50.712 330.7 10.2 328 13.2
2009-11-19 09:13:20 51°19.025 2°50.698 331.7 10.3 326 14.3
2009-11-19 09:13:25 51°19.037 2°50.685 330.7 9.9 326 14.4
2009-11-19 09:13:30 51°19.048 2°50.673 331.5 10 327 13.4
2009-11-19 09:13:34 51°19.058 2°50.664 332.3 10.1 327 13.6
2009-11-19 09:13:40 51°19.072 2°50.649 332 10.1 327 13.2
2009-11-19 09:13:45 51°19.083 2°50.636 331.8 10.3 326 13.3
2009-11-19 09:13:50 51°19.095 2°50.624 331.8 10.4 327 13.5
2009-11-19 09:13:55 51°19.107 2°50.611 332.1 10.3 326 13.1
2009-11-19 09:14:00 51°19.119 2°50.599 332.6 10.3 327 13
2009-11-19 09:14:05 51°19.131 2°50.586 332.3 10.4 326 12.7
2009-11-19 09:14:10 51°19.143 2°50.573 332 10.4 326 12.8
2009-11-19 09:14:15 51°19.155 2°50.562 332.4 10.4 329 12.6
2009-11-19 09:14:20 51°19.167 2°50.549 332.2 10.5 327 13
2009-11-19 09:14:25 51°19.179 2°50.537 333.3 10.2 329 13
2009-11-19 09:14:30 51°19.192 2°50.525 333.3 10.3 327 12.7
2009-11-19 09:14:35 51°19.204 2°50.513 333.1 10.3 329 12.4
2009-11-19 09:14:40 51°19.216 2°50.5 333.1 10.3 328 12
2009-11-19 09:14:45 51°19.228 2°50.488 333.3 10.2 328 12.5
2009-11-19 09:14:50 51°19.24 2°50.475 333.3 10.3 327 12.4
2009-11-19 09:14:55 51°19.252 2°50.463 333 10.4 328 12.1
2009-11-19 09:15:00 51°19.265 2°50.451 332.6 10.7 328 12
2009-11-19 09:15:05 51°19.277 2°50.44 332.5 10.4 329 11.5
2009-11-19 09:15:10 51°19.289 2°50.427 332.8 10.4 327 11.8
2009-11-19 09:15:14 51°19.299 2°50.418 332.9 10.4 329 12.2
2009-11-19 09:15:20 51°19.313 2°50.402 332.1 10.5 325 11.7
2009-11-19 09:15:25 51°19.325 2°50.391 332.2 10.4 329 11.1
2009-11-19 09:15:30 51°19.338 2°50.378 333.1 10.5 328 11.2
2009-11-19 09:15:34 51°19.347 2°50.368 332.7 10.6 327 10.9
2009-11-19 09:15:40 51°19.362 2°50.352 332.1 10.6 327 11
2009-11-19 09:15:45 51°19.374 2°50.34 332 10.7 327 10.8
2009-11-19 09:15:50 51°19.386 2°50.327 331.4 10.6 326 11.3
2009-11-19 09:15:55 51°19.399 2°50.314 331.3 10.6 328 11.5
2009-11-19 09:16:00 51°19.411 2°50.301 331.8 10.8 326 11.4
2009-11-19 09:16:05 51°19.424 2°50.289 331 10.8 328 11.4
2009-11-19 09:16:10 51°19.436 2°50.276 331.2 10.9 328 10.6
2009-11-19 09:16:15 51°19.449 2°50.264 332.4 10.6 330 10.8
2009-11-19 09:16:20 51°19.461 2°50.251 332.5 10.7 328 11.1
2009-11-19 09:16:25 51°19.474 2°50.239 332.5 10.7 329 11.2
2009-11-19 09:16:30 51°19.486 2°50.226 332.4 10.7 328 11.6
2009-11-19 09:16:35 51°19.499 2°50.214 332.5 10.6 330 11.7
2009-11-19 09:16:40 51°19.511 2°50.202 332.2 10.5 328 10.8
2009-11-19 09:16:45 51°19.524 2°50.19 332.1 10.6 329 11
2009-11-19 09:16:50 51°19.537 2°50.178 333 10.8 329 11.1
2009-11-19 09:16:55 51°19.55 2°50.165 332.5 10.8 328 11
2009-11-19 09:17:00 51°19.562 2°50.153 332.5 10.4 329 10.9
2009-11-19 09:17:05 51°19.574 2°50.141 332.9 10.5 327 11.4
2009-11-19 09:17:10 51°19.586 2°50.128 331.9 10.6 327 11.8
2009-11-19 09:17:15 51°19.598 2°50.115 331.5 10.6 327 11.8
2009-11-19 09:17:20 51°19.611 2°50.103 331.9 10.7 328 12.5
2009-11-19 09:17:25 51°19.623 2°50.09 332.1 10.7 327 12.6
2009-11-19 09:17:30 51°19.635 2°50.077 331.8 10.7 327 12.9
2009-11-19 09:17:35 51°19.648 2°50.064 331.8 10.7 327 13.1
2009-11-19 09:17:40 51°19.66 2°50.051 331.9 10.9 328 13.4
2009-11-19 09:17:45 51°19.673 2°50.038 331.9 10.6 328 13.2
2009-11-19 09:17:50 51°19.685 2°50.026 332.6 10.6 329 13.3
2009-11-19 09:17:55 51°19.698 2°50.015 333.6 10.7 329 13.5
2009-11-19 09:18:00 51°19.711 2°50.002 331.9 10.6 329 14.4
2009-11-19 09:18:05 51°19.723 2°49.99 332.9 10.5 328 14.9
2009-11-19 09:18:10 51°19.735 2°49.978 331.7 10.4 327 14
2009-11-19 09:18:15 51°19.747 2°49.966 332.1 10.3 329 14.2
2009-11-19 09:18:20 51°19.759 2°49.954 333.8 10.4 328 14.6
2009-11-19 09:18:25 51°19.771 2°49.941 333.2 10.4 327 14.2
2009-11-19 09:18:30 51°19.783 2°49.929 333 10.2 329 14.3
2009-11-19 09:18:35 51°19.796 2°49.916 333.8 10.5 326 14.4
2009-11-19 09:18:40 51°19.808 2°49.904 331.8 10.5 327 14.1
2009-11-19 09:18:45 51°19.821 2°49.891 332.2 10.6 328 14.6
2009-11-19 09:18:50 51°19.833 2°49.878 332.5 10.7 327 14.1
2009-11-19 09:18:55 51°19.845 2°49.866 331.8 10.5 327 14
2009-11-19 09:19:00 51°19.857 2°49.853 331.9 10.7 327 15.1
2009-11-19 09:19:05 51°19.87 2°49.84 331.9 10.6 326 15.3
2009-11-19 09:19:10 51°19.882 2°49.828 331.8 10.5 328 14.9
2009-11-19 09:19:15 51°19.894 2°49.814 331.8 10.6 326 14.5
2009-11-19 09:19:20 51°19.906 2°49.801 331.6 10.5 326 14.6
2009-11-19 09:19:25 51°19.919 2°49.789 332.1 10.6 327 15.6
2009-11-19 09:19:30 51°19.931 2°49.776 331.8 10.6 327 15.7
2009-11-19 09:19:35 51°19.943 2°49.764 331.1 10.5 329 15.7
2009-11-19 09:19:40 51°19.955 2°49.752 332.7 10.5 326 15.8
2009-11-19 09:19:45 51°19.967 2°49.739 332 10.4 328 16
2009-11-19 09:19:50 51°19.98 2°49.727 332.2 10.4 329 16.8
2009-11-19 09:19:54 51°19.989 2°49.717 333 10.5 329 17.5
2009-11-19 09:20:00 51°20.004 2°49.703 333.7 10.6 327 17.5
2009-11-19 09:20:05 51°20.016 2°49.69 333.1 10.4 329 17.4
2009-11-19 09:20:10 51°20.028 2°49.677 332.3 10.5 326 17.1
2009-11-19 09:20:15 51°20.041 2°49.665 332.3 10.5 329 17.6
2009-11-19 09:20:20 51°20.053 2°49.652 332.5 10.7 326 17.5
2009-11-19 09:20:25 51°20.065 2°49.64 331.9 10.6 329 18.1
2009-11-19 09:20:30 51°20.077 2°49.627 332.5 10.5 328 17.9
2009-11-19 09:20:35 51°20.09 2°49.614 333.4 10.6 327 17.9
2009-11-19 09:20:40 51°20.102 2°49.601 333.5 10.4 326 18.2
2009-11-19 09:20:45 51°20.115 2°49.589 332.5 10.7 327 18.5
2009-11-19 09:20:50 51°20.127 2°49.575 332.5 10.5 326 18.7
2009-11-19 09:20:55 51°20.139 2°49.563 332.3 10.6 328 18.9
2009-11-19 09:21:00 51°20.152 2°49.549 332.9 10.9 325 19.2
2009-11-19 09:21:05 51°20.164 2°49.536 331.7 10.6 327 18.8
2009-11-19 09:21:10 51°20.176 2°49.523 332.3 10.7 325 19.5
2009-11-19 09:21:15 51°20.188 2°49.51 331.5 10.7 327 19.7
2009-11-19 09:21:20 51°20.201 2°49.497 330.4 10.6 326 19.7
2009-11-19 09:21:25 51°20.213 2°49.484 331.8 10.7 326 19.9
2009-11-19 09:21:30 51°20.225 2°49.47 332.2 10.7 327 20.4
2009-11-19 09:21:35 51°20.237 2°49.458 331.7 10.5 327 20.2
2009-11-19 09:21:40 51°20.248 2°49.444 330.9 10.4 324 20.2
2009-11-19 09:21:45 51°20.26 2°49.431 331.1 10.6 327 20.8
2009-11-19 09:21:50 51°20.273 2°49.418 332.3 10.5 328 21.3
2009-11-19 09:21:55 51°20.285 2°49.405 332 10.5 325 21.2
2009-11-19 09:22:00 51°20.296 2°49.391 330.3 10.3 325 21.3
2009-11-19 09:22:05 51°20.309 2°49.379 331.2 10.3 327 21.6
2009-11-19 09:22:10 51°20.321 2°49.365 331.3 10.5 324 20.7
2009-11-19 09:22:15 51°20.332 2°49.352 330.3 10.1 325 20.6
2009-11-19 09:22:20 51°20.344 2°49.341 332.9 10.3 327 21.4
2009-11-19 09:22:25 51°20.356 2°49.326 332.5 10.4 323 21.4
2009-11-19 09:22:30 51°20.368 2°49.315 332.5 10.2 328 21.7
2009-11-19 09:22:35 51°20.38 2°49.303 333.9 10.4 327 21.3
2009-11-19 09:22:40 51°20.391 2°49.288 331.9 10.4 325 21.7
2009-11-19 09:22:45 51°20.404 2°49.278 334 10.5 331 22
2009-11-19 09:22:50 51°20.416 2°49.264 334.8 10.5 327 21.6
2009-11-19 09:22:55 51°20.429 2°49.252 334 10.6 329 21.5
2009-11-19 09:23:00 51°20.441 2°49.24 335.1 10.5 330 21.8
2009-11-19 09:23:05 51°20.454 2°49.228 335.7 10.6 328 22.5
2009-11-19 09:23:10 51°20.466 2°49.215 333.7 10.6 326 22.1
2009-11-19 09:23:14 51°20.476 2°49.205 334.4 10.5 330 22.4
2009-11-19 09:23:20 51°20.49 2°49.19 334.2 10.7 327 22.1
2009-11-19 09:23:25 51°20.503 2°49.177 334.3 10.6 328 22.1
2009-11-19 09:23:30 51°20.516 2°49.166 334.6 10.7 329 22.3
2009-11-19 09:23:35 51°20.528 2°49.152 334.3 10.6 328 22
2009-11-19 09:23:40 51°20.541 2°49.141 335.3 10.8 328 22
2009-11-19 09:23:45 51°20.553 2°49.127 334.2 10.7 327 22.1
2009-11-19 09:23:50 51°20.566 2°49.115 334.4 10.7 328 21.8
2009-11-19 09:23:55 51°20.578 2°49.102 334.2 10.7 326 21.7
2009-11-19 09:24:00 51°20.591 2°49.09 335.4 10.6 331 21.7
2009-11-19 09:24:05 51°20.604 2°49.077 334.7 10.8 328 22.2
2009-11-19 09:24:10 51°20.616 2°49.065 335 10.6 329 21.8
2009-11-19 09:24:14 51°20.626 2°49.055 334.7 10.6 327 22.1
2009-11-19 09:24:20 51°20.641 2°49.041 335 10.4 333 21.9
2009-11-19 09:24:25 51°20.654 2°49.032 338.8 10.4 330 21.6
2009-11-19 09:24:30 51°20.667 2°49.02 338.4 10.4 332 21.8
2009-11-19 09:24:35 51°20.68 2°49.011 340.5 10.4 337 22.2
2009-11-19 09:24:40 51°20.693 2°49.001 341.7 10.4 336 22.5
2009-11-19 09:24:45 51°20.707 2°48.993 342.2 10.4 337 22.4
2009-11-19 09:24:50 51°20.72 2°48.984 343.4 10.3 338 22.2
2009-11-19 09:24:55 51°20.733 2°48.975 344.5 10.4 338 21.6
2009-11-19 09:25:00 51°20.747 2°48.967 344.3 10.3 342 21.2
2009-11-19 09:25:05 51°20.76 2°48.959 346.7 10.5 337 21.1
2009-11-19 09:25:10 51°20.773 2°48.951 345.2 10.3 339 21.6
2009-11-19 09:25:15 51°20.787 2°48.944 346.7 10.4 341 21.6
2009-11-19 09:25:20 51°20.801 2°48.936 347.7 10.5 341 21.7
2009-11-19 09:25:25 51°20.815 2°48.928 346.8 10.5 341 20.9
2009-11-19 09:25:30 51°20.828 2°48.92 347 10.5 341 20.5
2009-11-19 09:25:35 51°20.842 2°48.914 348.1 10.4 342 20.5
2009-11-19 09:25:40 51°20.856 2°48.906 347.5 10.4 339 20.7
2009-11-19 09:25:45 51°20.87 2°48.9 348.4 10.4 345 21.4
2009-11-19 09:25:50 51°20.883 2°48.893 348.5 10.4 343 21.2
2009-11-19 09:25:55 51°20.897 2°48.885 348.3 10.4 343 21
2009-11-19 09:26:00 51°20.911 2°48.877 347.5 10.4 343 20.9
2009-11-19 09:26:05 51°20.925 2°48.871 347.7 10.5 343 20.6
2009-11-19 09:26:10 51°20.939 2°48.862 347 10.6 340 20.2
2009-11-19 09:26:15 51°20.952 2°48.856 347.4 10.5 343 20.6
2009-11-19 09:26:20 51°20.966 2°48.847 346.4 10.4 343 20.7
2009-11-19 09:26:25 51°20.98 2°48.84 347.2 10.4 343 20.6
2009-11-19 09:26:30 51°20.994 2°48.832 347.7 10.4 340 20.1
2009-11-19 09:26:35 51°21.007 2°48.826 348.7 10.4 343 20.1
2009-11-19 09:26:40 51°21.021 2°48.818 346.8 10.3 340 19.9
2009-11-19 09:26:45 51°21.035 2°48.811 348.7 10.4 338 20
2009-11-19 09:26:50 51°21.048 2°48.803 346.3 10.3 341 20.2
2009-11-19 09:26:55 51°21.062 2°48.798 346.8 10.3 345 20.8
2009-11-19 09:27:00 51°21.075 2°48.79 346.9 10.3 341 20.6
2009-11-19 09:27:05 51°21.089 2°48.783 346.8 10.2 342 20.1
2009-11-19 09:27:10 51°21.102 2°48.776 347.2 10.3 341 20.5
2009-11-19 09:27:15 51°21.116 2°48.768 346.2 10.3 343 20.4
2009-11-19 09:27:20 51°21.129 2°48.759 346.9 10.4 336 19.7
2009-11-19 09:27:25 51°21.143 2°48.753 345 10.3 346 19.7
2009-11-19 09:27:30 51°21.156 2°48.746 347.2 10.3 340 20
2009-11-19 09:27:35 51°21.169 2°48.737 345 10.2 338 20.1
2009-11-19 09:27:40 51°21.183 2°48.732 347.3 10.4 342 20.1
2009-11-19 09:27:45 51°21.196 2°48.722 347 10.4 338 20.4
2009-11-19 09:27:50 51°21.21 2°48.716 346.7 10.2 343 19.9
2009-11-19 09:27:54 51°21.221 2°48.71 347.5 10.3 343 20.5
2009-11-19 09:28:00 51°21.237 2°48.701 347.6 10.4 340 20.1
2009-11-19 09:28:05 51°21.251 2°48.693 346.8 10.4 342 20
2009-11-19 09:28:10 51°21.265 2°48.686 347.4 10.4 342 20.2
2009-11-19 09:28:15 51°21.278 2°48.677 346.6 10.6 338 20.2
2009-11-19 09:28:20 51°21.293 2°48.671 346.6 10.6 344 20.4
2009-11-19 09:28:25 51°21.307 2°48.663 347.3 10.7 341 20.6
2009-11-19 09:28:30 51°21.32 2°48.655 346.3 10.5 340 20.2
2009-11-19 09:28:35 51°21.334 2°48.649 347.2 10.5 343 21
2009-11-19 09:28:40 51°21.348 2°48.64 346.6 10.6 341 20.8
2009-11-19 09:28:45 51°21.362 2°48.634 348.1 10.7 344 20.9
2009-11-19 09:28:50 51°21.376 2°48.625 347.1 10.7 340 21.3
2009-11-19 09:28:54 51°21.388 2°48.621 347.7 10.6 344 21.2
2009-11-19 09:29:00 51°21.404 2°48.61 346.8 10.8 339 21
2009-11-19 09:29:05 51°21.419 2°48.604 347 10.7 342 21.4
2009-11-19 09:29:10 51°21.433 2°48.596 346.8 10.7 342 21.6
2009-11-19 09:29:15 51°21.447 2°48.59 347.2 10.7 344 21.9
2009-11-19 09:29:20 51°21.461 2°48.581 346.8 10.7 341 21.7
2009-11-19 09:29:25 51°21.475 2°48.574 346.9 10.7 342 21.9
2009-11-19 09:29:30 51°21.489 2°48.566 346.3 10.7 341 21.9
2009-11-19 09:29:35 51°21.503 2°48.559 347 10.6 342 21.9
2009-11-19 09:29:40 51°21.517 2°48.551 347.5 10.7 340 21.6
2009-11-19 09:29:45 51°21.531 2°48.543 347.1 10.7 341 21.9
2009-11-19 09:29:50 51°21.545 2°48.536 347.2 10.7 342 21.9
2009-11-19 09:29:55 51°21.559 2°48.528 346.6 10.6 341 22.2
2009-11-19 09:30:00 51°21.573 2°48.522 347 10.5 343 22.5
2009-11-19 09:30:05 51°21.587 2°48.513 347.2 10.7 342 22.5
2009-11-19 09:30:10 51°21.602 2°48.507 348.4 10.7 342 22.5
2009-11-19 09:30:15 51°21.615 2°48.499 346.2 10.6 341 22.5
2009-11-19 09:30:20 51°21.629 2°48.494 347.1 10.6 342 22.8
2009-11-19 09:30:25 51°21.643 2°48.484 346.9 10.6 340 22.6
2009-11-19 09:30:30 51°21.657 2°48.478 347 10.6 342 22.4
2009-11-19 09:30:35 51°21.671 2°48.47 347.4 10.6 340 22.7
2009-11-19 09:30:40 51°21.685 2°48.464 346.9 10.5 345 22.5
2009-11-19 09:30:45 51°21.699 2°48.455 347.2 10.6 338 22.5
2009-11-19 09:30:50 51°21.713 2°48.448 347.2 10.5 344 22.4
2009-11-19 09:30:55 51°21.727 2°48.441 348.1 10.5 341 22.7
2009-11-19 09:31:00 51°21.74 2°48.434 346.3 10.5 344 23
2009-11-19 09:31:05 51°21.755 2°48.427 347 10.5 341 23
2009-11-19 09:31:10 51°21.768 2°48.418 345.3 10.5 339 22.2
2009-11-19 09:31:15 51°21.782 2°48.411 345.2 10.5 341 22.6
2009-11-19 09:31:20 51°21.795 2°48.402 344.6 10.6 337 22.1
2009-11-19 09:31:25 51°21.809 2°48.393 343.3 10.6 338 22.2
2009-11-19 09:31:30 51°21.823 2°48.385 343.6 10.6 339 22.4
2009-11-19 09:31:35 51°21.836 2°48.374 342.2 10.7 333 22.6
2009-11-19 09:31:40 51°21.85 2°48.365 340.7 10.6 339 22.4
2009-11-19 09:31:45 51°21.863 2°48.354 341.2 10.8 331 22.9
2009-11-19 09:31:50 51°21.876 2°48.343 336.5 10.7 331 23.4
2009-11-19 09:31:55 51°21.89 2°48.332 336.4 10.7 335 23.5
2009-11-19 09:32:00 51°21.902 2°48.32 336.2 10.7 329 22.6
2009-11-19 09:32:05 51°21.915 2°48.308 334.9 10.9 330 22.6
2009-11-19 09:32:10 51°21.929 2°48.297 336.3 10.8 334 23.3
2009-11-19 09:32:15 51°21.941 2°48.284 334.3 10.8 329 23.7
2009-11-19 09:32:20 51°21.954 2°48.273 334 10.7 333 23.2
2009-11-19 09:32:25 51°21.967 2°48.261 334.7 10.8 329 22.5
2009-11-19 09:32:30 51°21.98 2°48.249 334.2 10.8 330 22.1
2009-11-19 09:32:35 51°21.993 2°48.237 334.3 10.8 332 22.8
2009-11-19 09:32:40 51°22.006 2°48.225 333.5 10.9 329 23.2
2009-11-19 09:32:45 51°22.019 2°48.213 334.5 10.7 332 23
2009-11-19 09:32:50 51°22.032 2°48.202 334.7 10.8 330 23.1
2009-11-19 09:32:55 51°22.045 2°48.189 334 10.7 329 22.9
2009-11-19 09:33:00 51°22.058 2°48.177 335 10.8 332 22.9
2009-11-19 09:33:05 51°22.071 2°48.165 335.3 10.8 328 22.9
2009-11-19 09:33:10 51°22.084 2°48.154 334 10.8 330 23.1
2009-11-19 09:33:15 51°22.097 2°48.142 334.5 10.7 331 23
2009-11-19 09:33:20 51°22.11 2°48.13 334.3 10.8 330 23.6
2009-11-19 09:33:25 51°22.123 2°48.118 335.1 10.7 330 22.9
2009-11-19 09:33:30 51°22.136 2°48.106 334.7 10.8 329 22.8
2009-11-19 09:33:35 51°22.149 2°48.095 334 10.7 331 23
2009-11-19 09:33:40 51°22.162 2°48.083 334.4 10.7 330 23.4
2009-11-19 09:33:45 51°22.175 2°48.071 334 10.8 330 23.2
2009-11-19 09:33:50 51°22.188 2°48.059 334.4 10.7 332 23.1
2009-11-19 09:33:55 51°22.201 2°48.047 334.9 10.7 330 23.4
2009-11-19 09:34:00 51°22.214 2°48.036 334.6 10.5 331 22.8
2009-11-19 09:34:05 51°22.226 2°48.024 334.7 10.4 329 21.8
2009-11-19 09:34:10 51°22.239 2°48.012 333.8 10.5 327 21.4
2009-11-19 09:34:15 51°22.251 2°48 333.1 10.4 328 21.8
2009-11-19 09:34:20 51°22.263 2°47.988 332.4 10.3 329 21.1
2009-11-19 09:34:25 51°22.275 2°47.975 332 10.3 327 19.8
2009-11-19 09:34:30 51°22.287 2°47.962 332 10.5 327 19.3
2009-11-19 09:34:35 51°22.299 2°47.949 332.2 10.5 324 18
2009-11-19 09:34:40 51°22.312 2°47.937 331.4 10.6 328 19
2009-11-19 09:34:45 51°22.324 2°47.924 331.1 10.6 327 19.5
2009-11-19 09:34:50 51°22.336 2°47.91 331.8 10.6 326 19.2
2009-11-19 09:34:54 51°22.346 2°47.899 330 10.5 326 18.4
2009-11-19 09:35:00 51°22.361 2°47.885 332 10.5 328 18.4
2009-11-19 09:35:05 51°22.373 2°47.871 332 10.5 326 17.4
2009-11-19 09:35:10 51°22.386 2°47.86 331.9 10.6 329 16.7
2009-11-19 09:35:15 51°22.398 2°47.846 332.3 10.7 326 15.9
2009-11-19 09:35:20 51°22.41 2°47.833 331.7 10.6 327 14.1
2009-11-19 09:35:25 51°22.422 2°47.819 331.2 10.6 328 16.4
2009-11-19 09:35:30 51°22.435 2°47.807 331.6 10.7 327 17.7
2009-11-19 09:35:35 51°22.447 2°47.794 331.1 10.7 326 18.3
2009-11-19 09:35:40 51°22.459 2°47.781 331.3 10.6 326 18.4
2009-11-19 09:35:45 51°22.471 2°47.768 330.5 10.5 328 18.1
2009-11-19 09:35:50 51°22.484 2°47.756 332.5 10.4 329 18.2
2009-11-19 09:35:54 51°22.493 2°47.746 333.1 10.5 326 17.8
2009-11-19 09:36:00 51°22.508 2°47.73 332.3 10.5 326 17.8
2009-11-19 09:36:05 51°22.52 2°47.718 331.9 10.5 328 17.6
2009-11-19 09:36:10 51°22.532 2°47.705 331.8 10.5 326 17.7
2009-11-19 09:36:15 51°22.545 2°47.693 332.6 10.5 328 17.9
2009-11-19 09:36:20 51°22.557 2°47.68 331.8 10.5 329 17.5
2009-11-19 09:36:25 51°22.569 2°47.667 332.5 10.5 326 17.4
2009-11-19 09:36:30 51°22.581 2°47.654 332 10.5 325 17.3
2009-11-19 09:36:35 51°22.593 2°47.641 331.4 10.4 328 17.2
2009-11-19 09:36:40 51°22.605 2°47.628 331.9 10.4 325 16.5
2009-11-19 09:36:45 51°22.617 2°47.615 331.3 10.4 325 15.7
2009-11-19 09:36:50 51°22.629 2°47.602 332 10.4 325 15.7
2009-11-19 09:36:54 51°22.639 2°47.592 331.5 10.3 327 16
2009-11-19 09:37:00 51°22.653 2°47.576 332.1 10.4 325 15.6
2009-11-19 09:37:05 51°22.665 2°47.564 332.5 10.5 324 15.6
2009-11-19 09:37:10 51°22.677 2°47.551 332.1 10.4 328 15.6
2009-11-19 09:37:15 51°22.689 2°47.537 331.7 10.6 326 16
2009-11-19 09:37:20 51°22.701 2°47.524 331.9 10.8 324 16
2009-11-19 09:37:25 51°22.713 2°47.511 330.7 10.6 327 16.3
2009-11-19 09:37:30 51°22.725 2°47.498 331.1 10.6 326 16.4
2009-11-19 09:37:35 51°22.737 2°47.484 330.9 10.6 324 16.1
2009-11-19 09:37:40 51°22.749 2°47.471 331.8 10.6 325 16.2
2009-11-19 09:37:45 51°22.762 2°47.458 332 10.6 326 16
2009-11-19 09:37:50 51°22.774 2°47.444 331.7 10.7 324 15.8
2009-11-19 09:37:54 51°22.784 2°47.434 332 10.6 329 16.6
2009-11-19 09:38:00 51°22.799 2°47.419 332 10.7 328 17.2
2009-11-19 09:38:05 51°22.811 2°47.406 333 10.6 328 16.7
2009-11-19 09:38:10 51°22.823 2°47.393 333.5 10.6 326 16.3
2009-11-19 09:38:15 51°22.836 2°47.381 332.9 10.6 329 16.5
2009-11-19 09:38:20 51°22.848 2°47.367 332.9 10.7 324 16.5
2009-11-19 09:38:25 51°22.861 2°47.355 333.2 10.6 328 16.7
2009-11-19 09:38:30 51°22.873 2°47.342 333.9 10.6 327 16.4
2009-11-19 09:38:35 51°22.886 2°47.329 332.9 10.6 326 16.8
2009-11-19 09:38:40 51°22.898 2°47.317 333.1 10.7 327 18.1
2009-11-19 09:38:45 51°22.91 2°47.303 332.3 10.6 326 18.5
2009-11-19 09:38:50 51°22.922 2°47.29 331.7 10.6 327 18.9
2009-11-19 09:38:54 51°22.932 2°47.28 332.9 10.8 327 19.7
2009-11-19 09:39:00 51°22.947 2°47.265 332.7 10.7 327 20
2009-11-19 09:39:05 51°22.959 2°47.251 330.8 10.4 328 19.8
2009-11-19 09:39:10 51°22.971 2°47.238 331.7 10.5 326 20
2009-11-19 09:39:15 51°22.984 2°47.226 332.5 10.6 328 20.7
2009-11-19 09:39:20 51°22.996 2°47.212 331.4 10.6 324 20.7
2009-11-19 09:39:25 51°23.008 2°47.198 330.6 10.6 324 20.2
2009-11-19 09:39:30 51°23.02 2°47.186 332.5 10.6 326 20.3
2009-11-19 09:39:35 51°23.032 2°47.172 330.3 10.5 325 19.8
2009-11-19 09:39:40 51°23.045 2°47.16 332.6 10.6 326 19.5
2009-11-19 09:39:45 51°23.057 2°47.148 332.5 10.5 328 18.6
2009-11-19 09:39:50 51°23.069 2°47.135 331.6 10.5 326 19.7
2009-11-19 09:39:55 51°23.081 2°47.123 333.9 10.4 330 19.7
2009-11-19 09:40:00 51°23.094 2°47.11 333.6 10.6 326 19.8
2009-11-19 09:40:05 51°23.106 2°47.097 332.3 10.5 327 19.9
2009-11-19 09:40:10 51°23.118 2°47.085 332 10.4 330 20.6
2009-11-19 09:40:15 51°23.13 2°47.073 334.2 10.5 328 20.3
2009-11-19 09:40:20 51°23.142 2°47.06 332.8 10.3 328 18.8
2009-11-19 09:40:25 51°23.154 2°47.046 331 10.5 324 17.7
2009-11-19 09:40:30 51°23.166 2°47.035 333 10.4 329 15.8
2009-11-19 09:40:35 51°23.178 2°47.021 331.1 10.4 324 17.7
2009-11-19 09:40:40 51°23.19 2°47.008 331.3 10.4 326 19.2
2009-11-19 09:40:45 51°23.202 2°46.995 332 10.5 325 20.2
2009-11-19 09:40:50 51°23.214 2°46.981 331.1 10.6 325 20.4
2009-11-19 09:40:55 51°23.226 2°46.969 331 10.5 328 21.1
2009-11-19 09:41:00 51°23.238 2°46.955 332.1 10.6 324 21.8
2009-11-19 09:41:05 51°23.25 2°46.943 331.8 10.4 329 22.6
2009-11-19 09:41:10 51°23.262 2°46.931 331.8 10.6 327 23.5
2009-11-19 09:41:15 51°23.274 2°46.918 330.5 10.4 327 23.7
2009-11-19 09:41:20 51°23.287 2°46.905 331 10.5 329 23.8
2009-11-19 09:41:25 51°23.299 2°46.892 332.2 10.7 326 23.7
2009-11-19 09:41:30 51°23.311 2°46.879 331.2 10.7 327 24.4
2009-11-19 09:41:35 51°23.324 2°46.866 330.8 10.7 328 24.6
2009-11-19 09:41:40 51°23.336 2°46.853 331.6 10.7 326 24.3
2009-11-19 09:41:45 51°23.348 2°46.839 330.9 10.7 322 24.2
2009-11-19 09:41:50 51°23.36 2°46.827 330.2 10.6 328 24.2
2009-11-19 09:41:55 51°23.373 2°46.815 332 10.6 328 24.2
2009-11-19 09:42:00 51°23.385 2°46.801 331.1 10.4 325 23.7
2009-11-19 09:42:05 51°23.396 2°46.788 330.8 10.5 326 24
2009-11-19 09:42:10 51°23.409 2°46.775 331.3 10.5 327 24.2
2009-11-19 09:42:15 51°23.421 2°46.761 331.1 10.5 326 23.9
2009-11-19 09:42:20 51°23.433 2°46.749 332.3 10.5 328 23.2
2009-11-19 09:42:25 51°23.445 2°46.736 333 10.5 328 24
2009-11-19 09:42:30 51°23.458 2°46.724 331.9 10.4 329 23.4
2009-11-19 09:42:35 51°23.47 2°46.71 332.7 10.5 325 22.3
2009-11-19 09:42:40 51°23.483 2°46.701 335.2 10.3 334 23
2009-11-19 09:42:45 51°23.495 2°46.688 335 10.4 329 23.1
2009-11-19 09:42:50 51°23.508 2°46.678 336.5 10.3 331 23.3
2009-11-19 09:42:55 51°23.519 2°46.665 333.3 10.4 326 23.1
2009-11-19 09:43:00 51°23.532 2°46.653 334.1 10.4 328 22.7
2009-11-19 09:43:05 51°23.544 2°46.64 332.7 10.4 328 23.9
2009-11-19 09:43:10 51°23.556 2°46.627 332.8 10.5 327 24.5
2009-11-19 09:43:15 51°23.568 2°46.615 332 10.3 329 25.4
2009-11-19 09:43:20 51°23.58 2°46.602 331.8 10.4 326 25.7
2009-11-19 09:43:25 51°23.592 2°46.59 333.2 10.4 329 25.5
2009-11-19 09:43:30 51°23.604 2°46.577 332.9 10.5 325 25.4
2009-11-19 09:43:35 51°23.616 2°46.564 331.4 10.5 328 26.4
2009-11-19 09:43:40 51°23.629 2°46.551 332.3 10.7 323 26.8
2009-11-19 09:43:45 51°23.641 2°46.538 331.2 10.5 328 26.7
2009-11-19 09:43:50 51°23.653 2°46.524 331.9 10.7 326 26.5
2009-11-19 09:43:55 51°23.665 2°46.511 331.9 10.7 327 27
2009-11-19 09:44:00 51°23.678 2°46.499 331.1 10.8 327 28
2009-11-19 09:44:05 51°23.69 2°46.485 331 10.6 329 27.7
2009-11-19 09:44:10 51°23.702 2°46.472 331.6 10.5 326 26.7
2009-11-19 09:44:15 51°23.714 2°46.459 332.1 10.6 327 27.4
2009-11-19 09:44:20 51°23.726 2°46.446 331.8 10.6 325 27.5
2009-11-19 09:44:25 51°23.739 2°46.434 332.3 10.6 327 28.5
2009-11-19 09:44:30 51°23.751 2°46.42 331.1 10.5 326 28.4
2009-11-19 09:44:34 51°23.76 2°46.409 331.8 10.5 325 28
2009-11-19 09:44:40 51°23.775 2°46.395 332.9 10.5 329 28.4
2009-11-19 09:44:45 51°23.788 2°46.381 333 10.6 324 28.6
2009-11-19 09:44:50 51°23.8 2°46.368 331.5 10.5 327 28.7
2009-11-19 09:44:55 51°23.812 2°46.355 332.6 10.6 324 28.6
2009-11-19 09:45:00 51°23.824 2°46.342 331.9 10.5 326 27.2
2009-11-19 09:45:05 51°23.837 2°46.329 332.8 10.5 326 25.8
2009-11-19 09:45:10 51°23.849 2°46.316 332.2 10.5 326 26.5
2009-11-19 09:45:15 51°23.86 2°46.303 331.1 10.4 324 26.8
2009-11-19 09:45:20 51°23.873 2°46.291 332.7 10.5 328 27.3
2009-11-19 09:45:25 51°23.884 2°46.278 331.7 10.4 326 27.2
2009-11-19 09:45:30 51°23.897 2°46.268 334.5 10.1 333 27.2
2009-11-19 09:45:35 51°23.909 2°46.257 337 10.2 331 26.3
2009-11-19 09:45:40 51°23.922 2°46.246 338.1 10.2 332 26.2
2009-11-19 09:45:45 51°23.934 2°46.237 340.1 10.1 336 25.6
2009-11-19 09:45:50 51°23.947 2°46.226 341.3 10.3 332 25.3
2009-11-19 09:45:55 51°23.96 2°46.217 341.9 10.2 336 25.6
2009-11-19 09:46:00 51°23.973 2°46.209 343 10.2 337 26.3
2009-11-19 09:46:05 51°23.986 2°46.201 343.1 10.1 338 27.1
2009-11-19 09:46:10 51°24 2°46.193 344.2 10.1 342 27.3
2009-11-19 09:46:15 51°24.013 2°46.188 349.1 10 346 27.4
2009-11-19 09:46:20 51°24.027 2°46.182 350.8 10.1 346 27.2
2009-11-19 09:46:25 51°24.04 2°46.178 352.2 10 348 27.3
2009-11-19 09:46:30 51°24.054 2°46.176 355.4 10 355 27.9
2009-11-19 09:46:34 51°24.065 2°46.171 356.2 10.3 346 28.2
2009-11-19 09:46:40 51°24.081 2°46.17 358.4 10 356 29
2009-11-19 09:46:45 51°24.095 2°46.167 359.2 10.1 356 28.7
2009-11-19 09:46:50 51°24.11 2°46.165 1 10.3 354 27.8
2009-11-19 09:46:55 51°24.123 2°46.163 359.5 9.9 356 27.5
2009-11-19 09:47:00 51°24.137 2°46.164 4.4 10.2 356 27.3
2009-11-19 09:47:05 51°24.151 2°46.16 0.1 10.2 351 28.2
2009-11-19 09:47:10 51°24.165 2°46.161 0.7 9.6 2 28.1
2009-11-19 09:47:15 51°24.178 2°46.158 4.9 10.1 356 25.6
2009-11-19 09:47:20 51°24.192 2°46.159 2 9.8 359 25.5
2009-11-19 09:47:25 51°24.205 2°46.158 3 9.6 2 26.2
2009-11-19 09:47:30 51°24.219 2°46.162 10.2 9.5 7 25.7
2009-11-19 09:47:35 51°24.232 2°46.165 9.7 9.6 8 27.2
2009-11-19 09:47:40 51°24.245 2°46.168 10.8 9.3 11 26.9
2009-11-19 09:47:45 51°24.257 2°46.176 18.3 9.3 18 27.4
2009-11-19 09:47:50 51°24.27 2°46.182 19.2 9.5 15 28
2009-11-19 09:47:55 51°24.283 2°46.188 18.2 9.5 17 28.1
2009-11-19 09:48:00 51°24.294 2°46.199 24 9.6 26 29.2
2009-11-19 09:48:05 51°24.307 2°46.204 24 9.5 19 27.8
2009-11-19 09:48:10 51°24.318 2°46.216 28.9 9.4 31 26.9
2009-11-19 09:48:15 51°24.33 2°46.224 28.3 9.6 23 27
2009-11-19 09:48:20 51°24.341 2°46.236 30.6 9.5 33 26.8
2009-11-19 09:48:25 51°24.353 2°46.246 32 9.3 30 27.3
2009-11-19 09:48:30 51°24.362 2°46.261 37.3 9.5 42 27.6
2009-11-19 09:48:35 51°24.373 2°46.272 37.1 9.5 32 27.8
2009-11-19 09:48:40 51°24.384 2°46.284 36.4 9.2 39 27.4
2009-11-19 09:48:45 51°24.393 2°46.3 40.8 9.5 47 27.7
2009-11-19 09:48:50 51°24.403 2°46.311 41.9 9.3 34 26.4
2009-11-19 09:48:55 51°24.412 2°46.327 42.2 9.6 47 28.6
2009-11-19 09:49:00 51°24.422 2°46.341 43.1 9.5 41 29.1
2009-11-19 09:49:05 51°24.43 2°46.356 44.9 9.3 49 28.4
2009-11-19 09:49:10 51°24.44 2°46.371 45.7 9.7 42 27.3
2009-11-19 09:49:15 51°24.45 2°46.387 44.6 9.8 48 27.5
2009-11-19 09:49:20 51°24.458 2°46.401 46.4 9.3 44 26.3
2009-11-19 09:49:25 51°24.467 2°46.418 46.7 9.9 51 26.2
2009-11-19 09:49:30 51°24.477 2°46.433 45.8 9.8 45 26.5
2009-11-19 09:49:35 51°24.484 2°46.45 47.5 9.3 55 26.2
2009-11-19 09:49:40 51°24.493 2°46.467 52 9.8 46 27.9
2009-11-19 09:49:45 51°24.502 2°46.482 48 9.4 54 28.3
2009-11-19 09:49:50 51°24.508 2°46.5 53.8 9.2 57 27.6
2009-11-19 09:49:54 51°24.516 2°46.512 52.3 9.8 47 28.4
2009-11-19 09:50:00 51°24.526 2°46.532 48.9 9.5 52 28
2009-11-19 09:50:05 51°24.533 2°46.55 53.8 9.5 57 27.3
2009-11-19 09:50:10 51°24.542 2°46.566 51.3 9.8 47 27.5
2009-11-19 09:50:15 51°24.549 2°46.583 50.3 9.4 57 26.3
2009-11-19 09:50:20 51°24.556 2°46.6 55.1 9.5 52 26
2009-11-19 09:50:25 51°24.565 2°46.616 52.1 9.6 50 27.2
2009-11-19 09:50:30 51°24.572 2°46.633 52.4 9.3 58 27.9
2009-11-19 09:50:35 51°24.58 2°46.65 54.9 9.5 52 28.7
2009-11-19 09:50:40 51°24.589 2°46.667 51 9.5 53 29.6
2009-11-19 09:50:45 51°24.595 2°46.685 53 9.5 58 29.2
2009-11-19 09:50:50 51°24.604 2°46.701 53.2 9.7 50 29.1
2009-11-19 09:50:55 51°24.612 2°46.718 50.9 9.4 54 27.1
2009-11-19 09:51:00 51°24.619 2°46.735 53.7 9.4 52 28.5
2009-11-19 09:51:05 51°24.628 2°46.751 51.6 9.6 49 29.1
2009-11-19 09:51:10 51°24.636 2°46.768 50.4 9.4 55 28.1
2009-11-19 09:51:15 51°24.644 2°46.784 52.5 9.5 50 29.3
2009-11-19 09:51:20 51°24.654 2°46.798 46.7 9.3 44 30.1
2009-11-19 09:51:25 51°24.662 2°46.814 47.1 9.4 51 29.8
2009-11-19 09:51:30 51°24.671 2°46.829 49 9.7 44 29.9
2009-11-19 09:51:35 51°24.681 2°46.842 43.4 9.3 41 29.1
2009-11-19 09:51:40 51°24.69 2°46.858 44.7 9.4 47 28.7
2009-11-19 09:51:45 51°24.701 2°46.871 43.6 9.7 34 28.7
2009-11-19 09:51:50 51°24.711 2°46.885 40.6 9.4 43 27.2
2009-11-19 09:51:55 51°24.721 2°46.898 42.1 9.8 37 28
2009-11-19 09:52:00 51°24.732 2°46.911 38.6 9.6 38 28
2009-11-19 09:52:05 51°24.742 2°46.926 41 9.8 36 27.9
2009-11-19 09:52:10 51°24.754 2°46.935 35.3 9.8 26 28.3
2009-11-19 09:52:15 51°24.764 2°46.948 34.5 9.6 39 28.1
2009-11-19 09:52:20 51°24.776 2°46.961 38.6 9.7 31 27.9
2009-11-19 09:52:25 51°24.787 2°46.972 34.7 9.6 34 27.8
2009-11-19 09:52:30 51°24.797 2°46.985 36.8 9.6 36 27.5
2009-11-19 09:52:35 51°24.809 2°46.997 35.9 9.7 35 27.3
2009-11-19 09:52:40 51°24.819 2°47.011 37.5 9.9 34 28.1
2009-11-19 09:52:45 51°24.831 2°47.021 35.7 9.7 31 29.1
2009-11-19 09:52:50 51°24.841 2°47.036 37.2 10 41 29.4
2009-11-19 09:52:55 51°24.854 2°47.047 37.2 10.1 31 29.2
2009-11-19 09:53:00 51°24.864 2°47.061 36.8 9.8 35 28.1
2009-11-19 09:53:05 51°24.876 2°47.073 36.7 10.1 35 28.9
2009-11-19 09:53:10 51°24.888 2°47.085 36.9 10 33 29.3
2009-11-19 09:53:15 51°24.898 2°47.099 35.8 9.6 40 29.5
2009-11-19 09:53:20 51°24.91 2°47.111 37.4 10.1 28 29.4
2009-11-19 09:53:25 51°24.921 2°47.123 34.1 9.6 39 28.7
2009-11-19 09:53:30 51°24.932 2°47.136 37.4 9.8 35 28
2009-11-19 09:53:35 51°24.944 2°47.147 35.2 9.9 31 27.8
2009-11-19 09:53:40 51°24.954 2°47.161 35.3 9.8 40 27.6
2009-11-19 09:53:45 51°24.966 2°47.172 38.2 9.9 29 27.4
2009-11-19 09:53:50 51°24.977 2°47.184 34.5 9.7 34 26.7
2009-11-19 09:53:55 51°24.987 2°47.198 37.1 9.7 40 26.6
2009-11-19 09:54:00 51°24.998 2°47.21 38.6 9.7 35 27.2
2009-11-19 09:54:05 51°25.01 2°47.221 34.8 9.6 38 26.6
2009-11-19 09:54:10 51°25.02 2°47.238 39.2 10 43 27.3
2009-11-19 09:54:15 51°25.032 2°47.246 36.1 9.8 26 26.1
2009-11-19 09:54:20 51°25.041 2°47.262 36.4 9.8 43 26.3
2009-11-19 09:54:25 51°25.053 2°47.272 37.5 9.8 31 25.9
2009-11-19 09:54:30 51°25.063 2°47.286 38.1 9.7 39 25.7
2009-11-19 09:54:35 51°25.075 2°47.298 37.1 9.8 32 25.5
2009-11-19 09:54:40 51°25.085 2°47.312 37.3 9.8 41 25.5
2009-11-19 09:54:45 51°25.097 2°47.324 38.1 9.9 32 25.6
2009-11-19 09:54:50 51°25.107 2°47.337 36.4 9.7 39 25.3
2009-11-19 09:54:55 51°25.118 2°47.351 38.8 9.8 38 25.6
2009-11-19 09:55:00 51°25.129 2°47.362 37.2 9.5 35 25.1